Terminal Aerodrome Forecast
Issued by NWS

Home | Current Version | Previous Version | Graphics & Text | Print | Product List | Glossary On
Versions: 1 2 3 4 5 6 7 8 9 10 11 12 13 14 15 16 17 18
600
FTUS43 KABR 241729
TAFPIR
TAF
KPIR 241729Z 2418/2518 21015KT P6SM FEW250
     FM250000 25016KT P6SM FEW250
     FM250300 29020G30KT P6SM SCT200
     FM251100 30025G37KT P6SM OVC060=

USA.gov is the U.S. government's official web portal to all federal, state and local government web resources and services.